Time;durP1;ratioP1;P1;durP2;ratioP2;P2;SDS_P1;SDS_P2;PMS_P1;PMS_P2;Temp;Humidity;BMP_temperature;BMP_pressure;BME280_temperature;BME280_humidity;BME280_pressure;Samples;Min_cycle;Max_cycle;Signal;HPM_P1;HPM_P2
2021/09/22 00:02:30;;;;;;;10.18;9.13;;;11.20;76.50;;;;;;6275180;28;20829;-78
2021/09/22 00:05:32;;;;;;;11.10;9.40;;;11.30;77.70;;;;;;6275624;28;20487;-78
2021/09/22 00:08:33;;;;;;;9.75;8.88;;;11.20;77.80;;;;;;6274876;28;20523;-79
2021/09/22 00:11:37;;;;;;;10.65;9.55;;;11.20;77.60;;;;;;6275335;28;20405;-77
2021/09/22 00:14:39;;;;;;;12.02;9.43;;;11.20;78.00;;;;;;6273854;28;20499;-78
2021/09/22 00:17:40;;;;;;;11.07;9.90;;;11.20;78.10;;;;;;6272235;28;20459;-77
2021/09/22 00:20:42;;;;;;;11.05;9.93;;;11.10;78.60;;;;;;6249724;28;20950;-78
2021/09/22 00:23:44;;;;;;;10.35;9.45;;;11.20;78.60;;;;;;6264007;28;20507;-79
2021/09/22 00:26:47;;;;;;;10.70;9.60;;;11.20;78.30;;;;;;6281278;28;20425;-78
2021/09/22 00:29:49;;;;;;;10.18;9.13;;;11.10;78.10;;;;;;6273698;28;20417;-78
2021/09/22 00:32:52;;;;;;;10.52;8.63;;;11.20;78.20;;;;;;6274357;28;20972;-78
2021/09/22 00:35:54;;;;;;;9.77;8.82;;;11.20;78.20;;;;;;6275410;28;20515;-78
2021/09/22 00:38:56;;;;;;;10.35;9.18;;;11.20;77.60;;;;;;6274187;28;20425;-78
2021/09/22 00:41:59;;;;;;;10.93;9.82;;;11.10;77.70;;;;;;6274472;28;20467;-79
2021/09/22 00:45:05;;;;;;;10.90;9.85;;;11.10;77.80;;;;;;6274668;28;20432;-78
2021/09/22 00:48:07;;;;;;;10.18;9.07;;;11.00;77.70;;;;;;6275025;28;20914;-78
2021/09/22 00:51:10;;;;;;;12.10;10.20;;;11.00;78.30;;;;;;6273378;28;20418;-78
2021/09/22 00:54:13;;;;;;;10.02;9.10;;;11.00;77.90;;;;;;6273872;28;20441;-78
2021/09/22 00:57:18;;;;;;;10.13;9.13;;;11.00;77.80;;;;;;6274099;28;20475;-78
2021/09/22 01:00:22;;;;;;;11.48;10.32;;;11.00;77.80;;;;;;6274556;28;20502;-78
2021/09/22 01:03:24;;;;;;;12.25;10.70;;;11.00;78.60;;;;;;6273663;28;20870;-78
2021/09/22 01:06:25;;;;;;;10.77;9.73;;;11.00;78.00;;;;;;6274073;28;20441;-78
2021/09/22 01:09:28;;;;;;;10.85;9.45;;;10.90;77.80;;;;;;6274000;28;20926;-78
2021/09/22 01:12:31;;;;;;;11.40;10.18;;;11.00;77.80;;;;;;6274251;28;20468;-78
2021/09/22 01:15:35;;;;;;;9.93;8.98;;;10.90;78.10;;;;;;6273722;28;20448;-79
2021/09/22 01:18:38;;;;;;;15.48;10.93;;;11.00;77.90;;;;;;6273918;28;21007;-78
2021/09/22 01:21:45;;;;;;;11.88;9.93;;;10.90;77.90;;;;;;6273887;28;20416;-78
2021/09/22 01:24:47;;;;;;;11.98;10.73;;;10.80;77.70;;;;;;6278881;28;20877;-78
2021/09/22 01:27:50;;;;;;;11.93;10.40;;;10.80;77.80;;;;;;6293456;28;20481;-78
2021/09/22 01:30:52;;;;;;;11.57;10.48;;;10.80;77.90;;;;;;6298229;28;20490;-78
2021/09/22 01:33:55;;;;;;;12.88;11.57;;;10.70;78.00;;;;;;6298884;28;20468;-78
2021/09/22 01:36:58;;;;;;;12.18;10.98;;;10.70;78.30;;;;;;6298224;28;20439;-78
2021/09/22 01:40:00;;;;;;;13.60;12.00;;;10.70;78.70;;;;;;6298753;28;20439;-78
2021/09/22 01:43:04;;;;;;;12.13;10.82;;;10.70;78.70;;;;;;6298499;28;20801;-78
2021/09/22 01:46:09;;;;;;;11.07;9.98;;;10.60;78.90;;;;;;6298357;28;20415;-78
2021/09/22 01:49:21;;;;;;;12.57;11.30;;;10.70;79.20;;;;;;6298401;28;20439;-78
2021/09/22 01:52:24;;;;;;;11.93;10.82;;;10.60;79.20;;;;;;6298195;28;20516;-78
2021/09/22 01:55:26;;;;;;;13.05;11.48;;;10.70;79.00;;;;;;6298228;28;20498;-78
2021/09/22 01:58:29;;;;;;;12.98;11.57;;;10.70;78.80;;;;;;6297397;28;20439;-78
2021/09/22 02:01:31;;;;;;;11.63;10.52;;;10.70;78.70;;;;;;6298692;28;20462;-78
2021/09/22 02:04:33;;;;;;;12.67;11.40;;;10.60;78.80;;;;;;6299295;28;20486;-78
2021/09/22 02:07:36;;;;;;;11.60;10.40;;;10.60;78.90;;;;;;6296830;28;20420;-78
2021/09/22 02:10:39;;;;;;;13.00;11.60;;;10.60;78.80;;;;;;6297102;28;20523;-78
2021/09/22 02:13:41;;;;;;;11.07;9.98;;;10.50;78.60;;;;;;6298219;28;20491;-79
2021/09/22 02:16:43;;;;;;;11.93;10.73;;;10.50;78.60;;;;;;6297778;28;20484;-78
2021/09/22 02:19:45;;;;;;;11.82;10.48;;;10.50;78.80;;;;;;6300860;28;20427;-78
2021/09/22 02:22:48;;;;;;;11.55;10.45;;;10.50;79.40;;;;;;6303530;28;20435;-78
2021/09/22 02:25:50;;;;;;;11.80;10.60;;;10.40;78.70;;;;;;6303094;28;20475;-78
2021/09/22 02:28:52;;;;;;;11.95;10.77;;;10.50;78.70;;;;;;6283134;28;20425;-78
2021/09/22 02:31:54;;;;;;;11.55;10.45;;;10.40;78.50;;;;;;6274916;28;20526;-78
2021/09/22 02:34:56;;;;;;;11.77;10.77;;;10.40;78.10;;;;;;6275556;28;20471;-79
2021/09/22 02:37:59;;;;;;;11.63;10.43;;;10.40;78.60;;;;;;6275691;28;20502;-78
2021/09/22 02:41:01;;;;;;;12.43;10.18;;;10.40;78.90;;;;;;6275468;28;20437;-78
2021/09/22 02:44:03;;;;;;;11.43;10.23;;;10.40;78.60;;;;;;6274963;28;20425;-78
2021/09/22 02:47:05;;;;;;;11.98;10.75;;;10.30;79.00;;;;;;6274729;28;20445;-78
2021/09/22 02:50:08;;;;;;;10.77;9.77;;;10.30;78.80;;;;;;6273513;28;20432;-78
2021/09/22 02:53:11;;;;;;;12.40;11.20;;;10.30;78.80;;;;;;6273705;28;20479;-78
2021/09/22 02:56:13;;;;;;;11.60;10.48;;;10.40;79.00;;;;;;6274629;28;20938;-78
2021/09/22 02:59:15;;;;;;;11.57;10.57;;;10.30;78.80;;;;;;6274075;28;20471;-78
2021/09/22 03:02:17;;;;;;;14.68;9.80;;;10.30;78.90;;;;;;6275116;28;20495;-78
2021/09/22 03:05:19;;;;;;;10.80;9.68;;;10.40;78.90;;;;;;6274855;28;20786;-78
2021/09/22 03:08:22;;;;;;;12.00;10.87;;;10.30;78.70;;;;;;6277354;28;20611;-78
2021/09/22 03:11:24;;;;;;;11.50;10.43;;;10.30;78.70;;;;;;6275357;28;20443;-78
2021/09/22 03:14:25;;;;;;;11.40;10.30;;;10.30;78.70;;;;;;6278875;28;20874;-78
2021/09/22 03:17:28;;;;;;;12.38;11.13;;;10.30;78.80;;;;;;6274811;28;20964;-78
2021/09/22 03:20:29;;;;;;;11.43;10.25;;;10.20;79.10;;;;;;6275530;28;20453;-78
2021/09/22 03:23:33;;;;;;;11.38;10.27;;;10.20;78.40;;;;;;6274755;28;20484;-78
2021/09/22 03:26:35;;;;;;;12.60;11.32;;;10.20;78.30;;;;;;6278809;28;20417;-78
2021/09/22 03:29:37;;;;;;;12.43;10.32;;;10.10;78.20;;;;;;6292751;28;20485;-78
2021/09/22 03:32:39;;;;;;;12.23;10.35;;;10.10;78.20;;;;;;6293966;28;20431;-77
2021/09/22 03:35:41;;;;;;;11.98;10.50;;;10.10;78.30;;;;;;6275542;28;20997;-78
2021/09/22 03:38:44;;;;;;;13.35;11.38;;;10.00;78.60;;;;;;6275463;28;21034;-78
2021/09/22 03:41:46;;;;;;;11.90;10.80;;;10.00;78.40;;;;;;6275512;28;20410;-78
2021/09/22 03:44:48;;;;;;;11.30;10.30;;;9.90;78.60;;;;;;6276151;28;20511;-78
2021/09/22 03:47:50;;;;;;;11.20;10.00;;;9.90;78.50;;;;;;6275812;28;20487;-78
2021/09/22 03:50:52;;;;;;;11.00;9.90;;;9.90;78.40;;;;;;6274510;28;20424;-78
2021/09/22 03:53:55;;;;;;;10.77;9.77;;;9.80;78.50;;;;;;6275216;28;20452;-78
2021/09/22 03:56:57;;;;;;;13.25;10.95;;;9.80;79.30;;;;;;6275500;28;20480;-78
2021/09/22 03:59:59;;;;;;;11.60;10.45;;;9.70;78.60;;;;;;6277904;28;20504;-78
2021/09/22 04:03:01;;;;;;;12.17;10.87;;;9.70;79.00;;;;;;6275267;28;20518;-78
2021/09/22 04:06:03;;;;;;;12.95;11.02;;;9.70;79.00;;;;;;6273986;28;20483;-78
2021/09/22 04:09:08;;;;;;;12.70;11.10;;;9.70;79.30;;;;;;6272878;28;20479;-78
2021/09/22 04:12:10;;;;;;;12.02;10.75;;;9.70;79.40;;;;;;6273868;28;20429;-78
2021/09/22 04:15:12;;;;;;;11.73;10.63;;;9.70;79.60;;;;;;6273452;28;20425;-78
2021/09/22 04:18:14;;;;;;;15.52;11.52;;;9.70;79.80;;;;;;6272515;28;20449;-77
2021/09/22 04:21:16;;;;;;;12.13;10.93;;;9.70;79.80;;;;;;6272724;28;20829;-78
2021/09/22 04:24:19;;;;;;;13.30;12.00;;;9.70;80.10;;;;;;6273189;28;20988;-78
2021/09/22 04:27:21;;;;;;;15.68;12.18;;;9.80;79.80;;;;;;6275387;28;20493;-77
2021/09/22 04:30:23;;;;;;;14.50;13.00;;;9.80;80.00;;;;;;6288952;28;20431;-77
2021/09/22 04:33:25;;;;;;;12.65;11.45;;;9.80;80.50;;;;;;6296782;28;20489;-78
2021/09/22 04:36:28;;;;;;;15.53;13.20;;;9.80;78.10;;;;;;6297042;28;20431;-78
2021/09/22 04:39:31;;;;;;;13.95;12.32;;;9.80;80.50;;;;;;6296389;28;20508;-77
2021/09/22 04:42:33;;;;;;;15.30;12.45;;;9.80;80.80;;;;;;6294897;28;20465;-77
2021/09/22 04:45:35;;;;;;;13.60;12.20;;;9.90;80.90;;;;;;6294882;28;20435;-77
2021/09/22 04:48:39;;;;;;;12.75;11.38;;;9.80;80.50;;;;;;6293621;28;20836;-78
2021/09/22 04:51:41;;;;;;;13.52;12.13;;;9.90;79.80;;;;;;6294390;28;20516;-77
2021/09/22 04:54:44;;;;;;;13.05;11.30;;;9.90;80.20;;;;;;6294327;28;20458;-77
2021/09/22 04:57:46;;;;;;;14.32;12.80;;;9.80;80.30;;;;;;6294283;28;20415;-77
2021/09/22 05:00:48;;;;;;;13.30;11.30;;;9.90;80.10;;;;;;6294456;28;20907;-77
2021/09/22 05:03:50;;;;;;;14.23;11.83;;;9.80;79.40;;;;;;6294983;28;20520;-77
2021/09/22 05:06:52;;;;;;;13.68;12.32;;;9.80;79.80;;;;;;6294920;28;20411;-77
2021/09/22 05:09:55;;;;;;;13.23;11.93;;;9.70;79.60;;;;;;6293833;28;20473;-77
2021/09/22 05:12:57;;;;;;;13.60;12.20;;;9.80;79.70;;;;;;6294761;28;20412;-77
2021/09/22 05:15:59;;;;;;;14.02;12.52;;;9.70;79.60;;;;;;6294638;28;20470;-77
2021/09/22 05:19:01;;;;;;;14.07;12.57;;;9.70;79.70;;;;;;6294083;28;20416;-77
2021/09/22 05:22:03;;;;;;;13.68;12.27;;;9.70;81.40;;;;;;6294001;28;20871;-77
2021/09/22 05:25:07;;;;;;;12.10;10.80;;;9.80;80.70;;;;;;6294886;28;20494;-78
2021/09/22 05:28:09;;;;;;;11.95;10.75;;;9.80;80.60;;;;;;6294694;28;20529;-77
2021/09/22 05:31:11;;;;;;;13.48;11.07;;;9.90;80.10;;;;;;6286867;28;20488;-78
2021/09/22 05:34:13;;;;;;;12.68;10.85;;;9.90;80.40;;;;;;6296006;28;20446;-78
2021/09/22 05:37:15;;;;;;;18.15;12.05;;;10.00;79.60;;;;;;6296052;28;20443;-78
2021/09/22 05:40:18;;;;;;;12.85;11.55;;;10.00;80.60;;;;;;6296086;28;20527;-77
2021/09/22 05:43:20;;;;;;;12.95;11.65;;;10.10;79.40;;;;;;6295827;28;20461;-77
2021/09/22 05:46:22;;;;;;;13.23;11.82;;;10.20;79.70;;;;;;6295849;28;20476;-77
2021/09/22 05:49:24;;;;;;;14.57;11.23;;;10.30;79.50;;;;;;6295229;28;20420;-78
2021/09/22 05:52:26;;;;;;;12.05;10.90;;;10.40;79.50;;;;;;6305206;22;20479;-75
2021/09/22 05:55:29;;;;;;;17.80;12.88;;;10.50;79.00;;;;;;6272629;28;20570;-75
2021/09/22 05:58:31;;;;;;;12.73;11.32;;;10.50;78.70;;;;;;6272644;28;20421;-75
2021/09/22 06:01:33;;;;;;;13.45;11.77;;;10.70;78.60;;;;;;6272612;28;20413;-75
2021/09/22 06:04:35;;;;;;;16.37;12.87;;;10.80;78.40;;;;;;6273036;28;20489;-76
2021/09/22 06:07:37;;;;;;;13.13;11.15;;;10.90;78.20;;;;;;6272483;28;20885;-76
2021/09/22 06:10:40;;;;;;;17.27;11.90;;;11.10;77.90;;;;;;6272045;28;20447;-76
2021/09/22 06:13:42;;;;;;;12.50;11.07;;;11.20;77.30;;;;;;6272206;28;20413;-76
2021/09/22 06:16:44;;;;;;;12.13;10.68;;;11.40;76.80;;;;;;6271702;28;20645;-75
2021/09/22 06:19:46;;;;;;;13.95;11.20;;;11.60;76.60;;;;;;6272293;28;20514;-75
2021/09/22 06:22:48;;;;;;;14.45;12.10;;;11.70;76.20;;;;;;6272785;28;20437;-75
2021/09/22 06:25:51;;;;;;;14.30;12.50;;;11.80;75.90;;;;;;6272280;28;20922;-75
2021/09/22 06:28:53;;;;;;;13.57;11.98;;;12.00;75.70;;;;;;6271909;28;20921;-75
2021/09/22 06:31:56;;;;;;;13.45;11.60;;;12.10;75.30;;;;;;6277144;28;20444;-75
2021/09/22 06:34:57;;;;;;;13.50;12.10;;;12.20;75.30;;;;;;6270027;28;20414;-76
2021/09/22 06:37:59;;;;;;;13.10;11.77;;;12.40;75.20;;;;;;6271946;28;20510;-75
2021/09/22 06:41:03;;;;;;;12.45;11.18;;;12.50;74.80;;;;;;6267678;28;20441;-77
2021/09/22 06:44:05;;;;;;;13.02;11.82;;;12.70;74.50;;;;;;6275235;28;20464;-77
2021/09/22 06:47:07;;;;;;;16.57;11.63;;;12.80;74.00;;;;;;6250030;28;20415;-77
2021/09/22 06:50:10;;;;;;;13.43;12.07;;;13.00;73.10;;;;;;6249690;28;20421;-77
2021/09/22 06:53:12;;;;;;;12.63;11.20;;;13.20;72.40;;;;;;6271853;28;20485;-77
2021/09/22 06:56:15;;;;;;;13.90;11.27;;;13.40;71.80;;;;;;6271787;28;20607;-77
2021/09/22 06:59:18;;;;;;;13.53;12.03;;;13.60;71.20;;;;;;6271172;28;20508;-77
2021/09/22 07:02:19;;;;;;;13.07;11.77;;;13.80;70.20;;;;;;6271492;28;20420;-76
2021/09/22 07:05:21;;;;;;;11.73;10.35;;;14.00;69.50;;;;;;6270896;28;20544;-76
2021/09/22 07:08:23;;;;;;;14.27;10.60;;;14.30;69.00;;;;;;6271602;28;20475;-77
2021/09/22 07:11:27;;;;;;;11.95;10.52;;;14.60;67.80;;;;;;6270033;28;20887;-77
2021/09/22 07:14:29;;;;;;;11.77;10.60;;;14.90;67.40;;;;;;6271539;28;20444;-77
2021/09/22 07:17:31;;;;;;;15.60;10.35;;;15.00;66.30;;;;;;6271172;28;20463;-77
2021/09/22 07:20:32;;;;;;;12.73;11.43;;;15.20;66.20;;;;;;6271341;28;20899;-77
2021/09/22 07:23:34;;;;;;;15.32;10.55;;;15.50;65.00;;;;;;6270724;28;20479;-77
2021/09/22 07:26:38;;;;;;;11.60;10.50;;;15.60;64.00;;;;;;6271112;28;20406;-77
2021/09/22 07:29:40;;;;;;;15.07;11.52;;;15.60;64.00;;;;;;6271068;28;20409;-75
2021/09/22 07:32:42;;;;;;;11.93;10.73;;;15.70;63.70;;;;;;6278859;28;20908;-77
2021/09/22 07:35:47;;;;;;;12.27;11.07;;;15.80;63.00;;;;;;6271226;28;20515;-76
2021/09/22 07:38:48;;;;;;;13.07;11.60;;;15.70;63.00;;;;;;6270554;28;20992;-77
2021/09/22 07:41:52;;;;;;;13.13;11.82;;;15.70;63.40;;;;;;6270615;28;20445;-76
2021/09/22 07:44:54;;;;;;;13.13;10.65;;;15.70;63.70;;;;;;6270403;28;20467;-77
2021/09/22 07:47:56;;;;;;;12.15;10.95;;;15.60;63.20;;;;;;6270767;28;20898;-76
2021/09/22 07:50:58;;;;;;;12.38;10.15;;;15.60;63.80;;;;;;6269966;28;20414;-76
2021/09/22 07:54:00;;;;;;;12.90;10.70;;;15.70;63.90;;;;;;6270109;28;20544;-78
2021/09/22 07:57:03;;;;;;;11.50;10.38;;;15.90;62.70;;;;;;6271147;28;20459;-77
2021/09/22 08:00:08;;;;;;;11.70;9.93;;;16.10;62.40;;;;;;6269795;28;20465;-77
2021/09/22 08:03:09;;;;;;;13.60;11.00;;;16.40;62.00;;;;;;6270076;28;20442;-77
2021/09/22 08:06:11;;;;;;;11.93;9.93;;;16.80;61.00;;;;;;6270829;28;20466;-77
2021/09/22 08:09:13;;;;;;;13.90;10.57;;;17.10;60.30;;;;;;6270211;28;20478;-77
2021/09/22 08:12:17;;;;;;;15.07;10.35;;;17.50;58.30;;;;;;6271259;28;20472;-77
2021/09/22 08:15:19;;;;;;;13.77;11.63;;;17.60;58.20;;;;;;6270125;28;20540;-77
2021/09/22 08:18:21;;;;;;;12.75;10.48;;;17.90;56.80;;;;;;6270437;28;20480;-77
2021/09/22 08:21:23;;;;;;;12.03;10.20;;;18.10;56.30;;;;;;6270350;28;20463;-76
2021/09/22 08:24:25;;;;;;;11.93;10.50;;;18.40;56.00;;;;;;6270992;28;20464;-76
2021/09/22 08:27:28;;;;;;;12.30;10.23;;;18.70;56.20;;;;;;6270847;28;21009;-76
2021/09/22 08:30:30;;;;;;;11.20;9.90;;;19.10;54.90;;;;;;6270549;28;20498;-76
2021/09/22 08:33:32;;;;;;;11.75;10.38;;;19.50;53.60;;;;;;6270692;28;20493;-76
2021/09/22 08:36:34;;;;;;;11.90;10.50;;;19.80;51.50;;;;;;6270550;28;20983;-76
2021/09/22 08:39:35;;;;;;;11.88;10.05;;;19.90;50.90;;;;;;6270900;28;20413;-77
2021/09/22 08:42:39;;;;;;;10.97;9.87;;;19.90;50.40;;;;;;6273088;28;20890;-77
2021/09/22 08:45:43;;;;;;;11.60;10.50;;;19.90;52.00;;;;;;6273649;28;20798;-77
2021/09/22 08:48:45;;;;;;;11.77;10.48;;;20.00;51.50;;;;;;6273902;28;20897;-77
2021/09/22 08:51:47;;;;;;;10.55;9.55;;;20.20;50.50;;;;;;6272712;28;20483;-77
2021/09/22 08:54:49;;;;;;;14.70;10.73;;;20.20;51.30;;;;;;6271904;28;20455;-77
2021/09/22 08:57:52;;;;;;;11.93;9.20;;;20.30;50.80;;;;;;6271546;28;20822;-77
2021/09/22 09:00:54;;;;;;;11.98;10.57;;;20.50;50.40;;;;;;6270419;28;20475;-77
2021/09/22 09:03:56;;;;;;;10.80;9.80;;;20.70;49.90;;;;;;6271274;28;20475;-77
2021/09/22 09:06:58;;;;;;;13.05;11.75;;;20.60;49.20;;;;;;6272930;28;20433;-78
2021/09/22 09:10:07;;;;;;;11.50;10.05;;;20.30;49.60;;;;;;6270596;28;20414;-78
2021/09/22 09:13:12;;;;;;;10.75;9.80;;;20.40;50.90;;;;;;6270911;28;20405;-77
2021/09/22 09:16:16;;;;;;;11.70;9.52;;;20.60;49.40;;;;;;6271107;28;20469;-80
2021/09/22 09:19:20;;;;;;;10.50;9.60;;;20.80;49.40;;;;;;6270245;28;20421;-78
2021/09/22 09:22:22;;;;;;;12.73;9.83;;;20.80;49.20;;;;;;6270455;28;20524;-77
2021/09/22 09:25:25;;;;;;;10.38;9.38;;;20.60;48.90;;;;;;6271265;28;20416;-78
2021/09/22 09:28:31;;;;;;;14.35;10.18;;;20.70;49.80;;;;;;6275072;28;20452;-77
2021/09/22 09:31:34;;;;;;;19.20;10.20;;;20.90;49.00;;;;;;6276731;28;20475;-79
2021/09/22 09:34:36;;;;;;;10.77;9.67;;;21.10;49.00;;;;;;6276092;28;20417;-78
2021/09/22 09:37:39;;;;;;;13.65;9.00;;;21.30;47.00;;;;;;6275613;28;20431;-77
2021/09/22 09:40:41;;;;;;;10.00;8.67;;;21.40;47.40;;;;;;6275223;28;20628;-78
2021/09/22 09:43:48;;;;;;;12.15;9.57;;;21.30;47.30;;;;;;6276724;28;20457;-78
2021/09/22 09:46:52;;;;;;;9.40;8.48;;;21.20;46.80;;;;;;6275590;28;20455;-78
2021/09/22 09:49:53;;;;;;;19.33;8.88;;;21.20;47.70;;;;;;6275385;28;20448;-78
2021/09/22 09:52:57;;;;;;;8.10;7.30;;;21.20;46.90;;;;;;6275286;28;20404;-78
2021/09/22 09:56:01;;;;;;;10.85;8.50;;;21.40;47.00;;;;;;6276104;28;20436;-78
2021/09/22 09:59:04;;;;;;;8.73;7.82;;;21.40;46.60;;;;;;6275463;28;20494;-77
2021/09/22 10:02:07;;;;;;;9.82;7.22;;;21.20;47.20;;;;;;6275050;28;20428;-78
2021/09/22 10:05:09;;;;;;;9.15;7.75;;;21.00;48.20;;;;;;6275592;28;20409;-78
2021/09/22 10:08:11;;;;;;;7.27;6.67;;;21.10;48.40;;;;;;6276216;28;20471;-78
2021/09/22 10:11:13;;;;;;;7.13;6.53;;;21.60;46.70;;;;;;6274478;28;20874;-78
2021/09/22 10:14:18;;;;;;;8.03;5.83;;;21.70;44.80;;;;;;6274967;28;20571;-78
2021/09/22 10:17:23;;;;;;;4.90;4.40;;;21.60;45.40;;;;;;6274702;28;20988;-78
2021/09/22 10:20:26;;;;;;;4.28;3.45;;;21.70;43.20;;;;;;6276176;28;20433;-78
2021/09/22 10:23:28;;;;;;;11.93;4.65;;;21.70;42.00;;;;;;6274911;28;20499;-78
2021/09/22 10:26:32;;;;;;;5.13;3.70;;;21.70;43.50;;;;;;6274724;28;20437;-78
2021/09/22 10:29:37;;;;;;;4.03;3.33;;;21.80;42.90;;;;;;6274624;28;20421;-78
2021/09/22 10:32:41;;;;;;;4.63;3.40;;;22.00;42.10;;;;;;6274656;28;20433;-78
2021/09/22 10:35:43;;;;;;;7.88;3.35;;;22.10;41.70;;;;;;6274325;28;20917;-78
2021/09/22 10:38:47;;;;;;;4.13;3.60;;;22.10;41.50;;;;;;6273078;28;20554;-79
2021/09/22 10:41:49;;;;;;;3.95;3.15;;;22.20;42.80;;;;;;6273227;28;20845;-77
2021/09/22 10:45:12;;;;;;;5.07;3.95;;;22.50;41.00;;;;;;6274133;28;20914;-77
2021/09/22 10:48:18;;;;;;;3.60;2.97;;;22.50;40.90;;;;;;6273056;28;20567;-76
2021/09/22 10:51:28;;;;;;;3.58;2.45;;;22.40;40.60;;;;;;6272196;28;20820;-76
2021/09/22 10:54:30;;;;;;;3.55;3.17;;;22.50;39.60;;;;;;6273383;28;20405;-77
2021/09/22 10:57:32;;;;;;;3.00;2.70;;;22.30;39.40;;;;;;6272944;28;20414;-77
2021/09/22 11:00:39;;;;;;;4.22;2.50;;;22.10;39.60;;;;;;6273480;28;20522;-77
2021/09/22 11:03:57;;;;;;;3.28;2.30;;;22.00;39.80;;;;;;6273026;28;20937;-77
2021/09/22 11:07:00;;;;;;;3.10;2.28;;;22.00;40.90;;;;;;6272342;28;20417;-77
2021/09/22 11:10:32;;;;;;;3.42;2.20;;;22.10;40.10;;;;;;6272394;28;20510;-77
2021/09/22 11:13:37;;;;;;;5.18;2.67;;;22.10;39.60;;;;;;6267034;28;20815;-77
2021/09/22 11:16:40;;;;;;;4.30;2.80;;;22.20;40.10;;;;;;6272084;28;20437;-77
2021/09/22 11:19:43;;;;;;;4.07;2.95;;;22.10;39.80;;;;;;6273227;28;20512;-77
2021/09/22 11:22:45;;;;;;;3.70;2.55;;;22.10;40.50;;;;;;6272420;28;20405;-79
2021/09/22 11:25:47;;;;;;;4.53;2.30;;;22.40;40.20;;;;;;6272506;28;20413;-78
2021/09/22 11:28:53;;;;;;;2.75;2.50;;;22.60;40.10;;;;;;6272635;28;20433;-78
2021/09/22 11:31:56;;;;;;;2.83;2.63;;;22.60;39.50;;;;;;6272017;28;20439;-77
2021/09/22 11:35:01;;;;;;;2.78;2.30;;;22.70;40.00;;;;;;6271921;28;20467;-77
2021/09/22 11:38:03;;;;;;;3.85;2.60;;;22.80;39.10;;;;;;6272004;28;20468;-77
2021/09/22 11:41:05;;;;;;;2.40;2.17;;;22.70;38.40;;;;;;6271668;28;20811;-78
2021/09/22 11:44:09;;;;;;;2.45;2.10;;;22.70;39.90;;;;;;6272225;28;20598;-79
2021/09/22 11:47:12;;;;;;;3.90;2.40;;;23.00;39.70;;;;;;6272734;28;20414;-78
2021/09/22 11:50:25;;;;;;;3.25;2.03;;;23.30;38.20;;;;;;6272416;28;20826;-79
2021/09/22 11:53:30;;;;;;;2.33;2.00;;;23.20;38.80;;;;;;6274195;28;20417;-78
2021/09/22 11:56:32;;;;;;;2.28;2.05;;;23.10;38.70;;;;;;6273610;28;20887;-78
2021/09/22 11:59:35;;;;;;;6.75;2.40;;;23.10;39.00;;;;;;6272553;28;20438;-77
2021/09/22 12:02:38;;;;;;;2.63;2.15;;;23.10;40.50;;;;;;6272455;28;20424;-77
2021/09/22 12:05:41;;;;;;;2.63;1.95;;;23.40;38.80;;;;;;6273240;28;20413;-77
2021/09/22 12:08:46;;;;;;;6.82;1.67;;;23.60;40.10;;;;;;6272711;28;20458;-77
2021/09/22 12:12:05;;;;;;;2.78;1.67;;;23.70;38.10;;;;;;6274278;28;20899;-78
2021/09/22 12:15:11;;;;;;;2.13;1.92;;;23.70;37.40;;;;;;6273098;28;20421;-76
2021/09/22 12:18:16;;;;;;;2.45;1.77;;;23.50;37.40;;;;;;6271018;28;20440;-76
2021/09/22 12:21:18;;;;;;;1.40;1.30;;;23.30;37.60;;;;;;6270310;28;20879;-77
2021/09/22 12:24:20;;;;;;;2.65;1.60;;;23.40;37.90;;;;;;6270975;28;20485;-77
2021/09/22 12:27:25;;;;;;;3.17;1.40;;;23.50;37.80;;;;;;6270639;28;20414;-77
2021/09/22 12:30:33;;;;;;;2.45;1.73;;;23.50;38.90;;;;;;6270124;28;20420;-77
2021/09/22 12:33:37;;;;;;;4.93;1.90;;;23.50;38.00;;;;;;6269525;28;20946;-78
2021/09/22 12:36:44;;;;;;;3.38;1.67;;;23.40;38.00;;;;;;6270243;28;20567;-77
2021/09/22 12:39:58;;;;;;;2.38;2.15;;;23.50;38.80;;;;;;6270142;28;20516;-77
2021/09/22 12:43:02;;;;;;;2.65;1.90;;;23.80;39.60;;;;;;6268738;28;20452;-77
2021/09/22 12:46:08;;;;;;;3.28;2.05;;;24.30;37.00;;;;;;6273787;28;20420;-77
2021/09/22 12:49:19;;;;;;;3.47;2.33;;;24.20;37.30;;;;;;6269232;28;20405;-77
2021/09/22 12:52:22;;;;;;;6.90;2.38;;;24.10;38.30;;;;;;6270388;28;20433;-77
2021/09/22 12:55:27;;;;;;;2.70;2.33;;;24.20;39.00;;;;;;6269535;28;20507;-77
2021/09/22 12:58:31;;;;;;;2.37;1.80;;;24.30;39.30;;;;;;6269819;28;20433;-78
2021/09/22 13:01:34;;;;;;;4.32;2.53;;;24.40;37.40;;;;;;6269786;28;20418;-76
2021/09/22 13:04:37;;;;;;;2.33;1.90;;;24.20;38.10;;;;;;6268600;28;20567;-77
2021/09/22 13:07:39;;;;;;;3.65;2.28;;;24.20;37.50;;;;;;6269428;28;20503;-77
2021/09/22 13:11:01;;;;;;;6.00;2.63;;;24.50;38.70;;;;;;6268518;28;20436;-77
2021/09/22 13:14:07;;;;;;;2.67;2.47;;;24.30;37.70;;;;;;6269325;28;20417;-77
2021/09/22 13:17:09;;;;;;;4.28;2.30;;;23.90;39.10;;;;;;6269298;28;20489;-77
2021/09/22 13:20:12;;;;;;;2.63;2.13;;;23.90;39.80;;;;;;6269228;28;20925;-77
2021/09/22 13:23:21;;;;;;;4.30;2.65;;;23.90;39.20;;;;;;6267735;28;20421;-77
2021/09/22 13:26:24;;;;;;;4.50;2.63;;;23.80;39.60;;;;;;6268912;28;20433;-76
2021/09/22 13:29:27;;;;;;;3.08;2.78;;;23.50;40.50;;;;;;6267912;28;20498;-77
2021/09/22 13:32:28;;;;;;;7.13;2.72;;;23.30;41.10;;;;;;6268931;28;20467;-77
2021/09/22 13:35:32;;;;;;;4.50;3.40;;;23.40;41.60;;;;;;6267920;28;20475;-77
2021/09/22 13:38:35;;;;;;;2.53;2.25;;;23.50;42.10;;;;;;6268068;28;21037;-77
2021/09/22 13:41:37;;;;;;;2.47;2.27;;;23.70;41.80;;;;;;6268064;28;20505;-76
2021/09/22 13:44:39;;;;;;;4.20;2.70;;;23.60;39.80;;;;;;6267136;28;20456;-77
2021/09/22 13:47:41;;;;;;;4.13;2.43;;;23.60;41.10;;;;;;6275550;28;20453;-76
2021/09/22 13:50:46;;;;;;;5.30;2.65;;;23.50;41.30;;;;;;6267618;28;20421;-76
2021/09/22 13:53:48;;;;;;;3.03;2.72;;;23.60;40.70;;;;;;6268202;28;20905;-76
2021/09/22 13:56:50;;;;;;;5.63;2.67;;;23.40;41.00;;;;;;6267860;28;20420;-77
2021/09/22 13:59:52;;;;;;;3.00;2.53;;;23.10;41.70;;;;;;6268575;28;20437;-77
2021/09/22 14:02:55;;;;;;;5.30;3.00;;;23.20;42.10;;;;;;6267243;28;20506;-77
2021/09/22 14:05:58;;;;;;;3.80;2.78;;;23.40;42.00;;;;;;6268063;28;20948;-77
2021/09/22 14:09:00;;;;;;;4.90;2.85;;;23.80;40.90;;;;;;6267488;28;20405;-77
2021/09/22 14:12:02;;;;;;;3.00;2.72;;;24.00;40.30;;;;;;6268054;28;20507;-78
2021/09/22 14:15:05;;;;;;;2.83;2.40;;;24.10;39.80;;;;;;6270274;28;20437;-77
2021/09/22 14:18:09;;;;;;;3.70;3.00;;;23.90;39.90;;;;;;6272415;28;20518;-78
2021/09/22 14:21:12;;;;;;;3.60;2.58;;;23.80;41.20;;;;;;6273034;28;20498;-77
2021/09/22 14:24:14;;;;;;;3.53;2.97;;;23.90;40.50;;;;;;6272246;28;20468;-77
2021/09/22 14:27:16;;;;;;;2.92;2.63;;;23.90;40.40;;;;;;6272441;28;20486;-77
2021/09/22 14:30:20;;;;;;;3.27;2.77;;;23.80;40.90;;;;;;6271881;28;20413;-76
2021/09/22 14:33:22;;;;;;;3.15;2.85;;;23.90;40.30;;;;;;6272200;28;20441;-77
2021/09/22 14:36:26;;;;;;;3.60;2.83;;;23.80;41.30;;;;;;6272114;28;20433;-77
2021/09/22 14:39:28;;;;;;;2.92;2.47;;;23.70;40.50;;;;;;6271491;28;20405;-77
2021/09/22 14:42:29;;;;;;;4.75;2.75;;;23.50;41.70;;;;;;6270838;28;20439;-77
2021/09/22 14:45:32;;;;;;;3.28;2.83;;;23.40;42.30;;;;;;6271276;28;20420;-77
2021/09/22 14:48:34;;;;;;;5.63;3.42;;;23.30;41.40;;;;;;6278821;28;20452;-77
2021/09/22 14:51:39;;;;;;;3.88;2.97;;;23.20;41.90;;;;;;6271536;28;21005;-77
2021/09/22 14:54:42;;;;;;;4.15;3.25;;;23.30;42.40;;;;;;6271635;28;20443;-77
2021/09/22 14:57:44;;;;;;;4.28;2.40;;;23.40;42.00;;;;;;6271312;28;20440;-76
2021/09/22 15:00:46;;;;;;;4.53;2.33;;;23.50;42.90;;;;;;6271395;28;20519;-76
2021/09/22 15:03:48;;;;;;;5.13;2.45;;;23.30;42.00;;;;;;6270816;28;20520;-76
2021/09/22 15:06:53;;;;;;;3.80;2.15;;;23.20;43.00;;;;;;6271670;28;20505;-77
2021/09/22 15:09:54;;;;;;;2.80;2.30;;;23.00;42.50;;;;;;6270836;28;20444;-76
2021/09/22 15:12:56;;;;;;;2.40;2.20;;;22.90;43.40;;;;;;6270957;28;20902;-76
2021/09/22 15:15:58;;;;;;;7.28;2.83;;;22.80;43.70;;;;;;6271676;28;20526;-76
2021/09/22 15:19:01;;;;;;;2.90;2.33;;;22.70;44.40;;;;;;6270780;28;20449;-76
2021/09/22 15:22:05;;;;;;;2.97;2.00;;;22.50;44.30;;;;;;6270511;28;20418;-76
2021/09/22 15:25:09;;;;;;;3.10;2.03;;;22.40;44.50;;;;;;6270428;28;20555;-76
2021/09/22 15:28:11;;;;;;;3.08;2.40;;;22.40;44.80;;;;;;6271148;28;20971;-76
2021/09/22 15:31:13;;;;;;;5.57;2.70;;;22.30;45.00;;;;;;6270283;28;20984;-76
2021/09/22 15:34:15;;;;;;;3.70;2.13;;;22.30;46.30;;;;;;6270418;28;20902;-76
2021/09/22 15:37:19;;;;;;;4.10;2.53;;;22.20;45.30;;;;;;6270827;28;20410;-76
2021/09/22 15:40:23;;;;;;;3.50;2.35;;;22.10;46.30;;;;;;6270700;28;20429;-76
2021/09/22 15:43:25;;;;;;;4.68;2.33;;;22.00;46.00;;;;;;6270029;28;20417;-76